createdAt,value
2019-04-20T00:00:49.159Z,11.27
2019-04-20T00:03:11.967Z,11.50
2019-04-20T00:05:41.589Z,11.37
2019-04-20T00:08:16.712Z,10.23
2019-04-20T00:10:48.640Z,10.13
2019-04-20T00:13:19.470Z,10.83
2019-04-20T00:15:36.943Z,9.63
2019-04-20T00:18:08.133Z,11.07
2019-04-20T00:20:37.163Z,10.10
2019-04-20T00:23:19.758Z,10.27
2019-04-20T00:26:27.361Z,9.97
2019-04-20T00:29:07.206Z,10.47
2019-04-20T00:31:35.106Z,9.80
2019-04-20T00:34:02.702Z,10.30
2019-04-20T00:36:20.146Z,10.10
2019-04-20T00:38:53.393Z,9.50
2019-04-20T00:41:20.341Z,8.63
2019-04-20T00:43:47.263Z,9.30
2019-04-20T00:46:23.061Z,8.70
2019-04-20T00:48:53.437Z,9.47
2019-04-20T00:51:31.612Z,8.73
2019-04-20T00:53:48.151Z,8.63
2019-04-20T00:56:14.082Z,8.87
2019-04-20T00:58:52.169Z,8.80
2019-04-20T01:01:32.096Z,8.53
2019-04-20T01:04:03.670Z,10.03
2019-04-20T01:06:33.439Z,10.13
2019-04-20T01:08:47.006Z,9.00
2019-04-20T01:11:23.141Z,8.87
2019-04-20T01:13:51.933Z,9.30
2019-04-20T01:16:25.688Z,8.73
2019-04-20T01:18:43.786Z,9.47
2019-04-20T01:21:18.036Z,9.17
2019-04-20T01:23:48.018Z,8.73
2019-04-20T01:26:14.493Z,9.03
2019-04-20T01:28:54.236Z,8.57
2019-04-20T01:31:18.735Z,8.93
2019-04-20T01:33:48.435Z,8.93
2019-04-20T01:36:27.885Z,9.10
2019-04-20T01:38:49.795Z,8.90
2019-04-20T01:41:03.473Z,9.23
2019-04-20T01:43:33.233Z,8.73
2019-04-20T01:46:08.184Z,9.47
2019-04-20T01:48:33.954Z,8.80
2019-04-20T01:51:07.321Z,8.90
2019-04-20T01:53:51.357Z,9.03
2019-04-20T01:56:17.223Z,9.10
2019-04-20T01:58:55.526Z,8.20
2019-04-20T02:01:21.017Z,8.53
2019-04-20T02:03:51.875Z,9.07
2019-04-20T02:06:20.187Z,8.40
2019-04-20T02:08:51.710Z,8.87
2019-04-20T02:11:25.451Z,8.13
2019-04-20T02:13:51.622Z,8.93
2019-04-20T02:16:27.691Z,8.97
2019-04-20T02:19:08.242Z,8.57
2019-04-20T02:21:28.608Z,8.33
2019-04-20T02:23:49.675Z,8.97
2019-04-20T02:26:12.885Z,9.57
2019-04-20T02:29:09.554Z,8.57
2019-04-20T02:34:26.135Z,8.53
2019-04-20T02:36:58.574Z,8.33
2019-04-20T02:39:28.721Z,8.70
2019-04-20T02:42:08.001Z,9.20
2019-04-20T02:46:55.403Z,9.90
2019-04-20T02:51:46.720Z,10.30
2019-04-20T02:54:18.574Z,10.87
2019-04-20T02:56:47.990Z,10.67
2019-04-20T02:59:44.708Z,10.90
2019-04-20T03:01:36.042Z,10.30
2019-04-20T03:03:50.326Z,10.33
2019-04-20T03:06:23.318Z,10.90
2019-04-20T03:09:08.950Z,11.23
2019-04-20T03:11:40.415Z,10.73
2019-04-20T03:13:59.024Z,11.83
2019-04-20T03:16:24.306Z,11.00
2019-04-20T03:18:53.517Z,9.93
2019-04-20T03:21:34.521Z,10.87
2019-04-20T03:24:06.492Z,11.27
2019-04-20T03:26:31.253Z,10.67
2019-04-20T03:29:01.818Z,10.70
2019-04-20T03:32:03.625Z,10.97
2019-04-20T03:34:37.713Z,10.57
2019-04-20T03:36:49.540Z,12.03
2019-04-20T03:39:04.211Z,11.07
2019-04-20T03:41:25.979Z,11.47
2019-04-20T03:43:47.643Z,10.67
2019-04-20T03:46:19.279Z,10.87
2019-04-20T03:48:59.749Z,10.47
2019-04-20T03:51:40.134Z,11.07
2019-04-20T03:54:05.417Z,10.90
2019-04-20T03:56:46.325Z,10.57
2019-04-20T03:59:11.602Z,10.90
2019-04-20T04:02:15.904Z,10.90
2019-04-20T04:04:34.333Z,10.93
2019-04-20T04:06:46.909Z,9.87
2019-04-20T04:09:20.706Z,10.93
2019-04-20T04:11:55.996Z,12.00
2019-04-20T04:14:07.095Z,11.93
2019-04-20T04:16:42.777Z,11.27
2019-04-20T04:19:13.232Z,11.90
2019-04-20T04:21:50.154Z,11.17
2019-04-20T04:24:17.244Z,12.30
2019-04-20T04:26:47.452Z,11.50
2019-04-20T04:29:25.717Z,11.87
2019-04-20T04:32:00.330Z,12.63
2019-04-20T04:34:19.283Z,11.80
2019-04-20T04:36:55.072Z,12.20
2019-04-20T04:39:27.746Z,13.10
2019-04-20T04:42:02.151Z,11.10
2019-04-20T04:44:14.807Z,11.70
2019-04-20T04:46:32.889Z,11.87
2019-04-20T04:49:13.298Z,12.03
2019-04-20T04:51:42.679Z,12.43
2019-04-20T04:54:10.153Z,12.73
2019-04-20T04:56:29.950Z,11.57
2019-04-20T04:58:58.116Z,11.97
2019-04-20T05:01:30.917Z,12.23
2019-04-20T05:06:41.407Z,12.57
2019-04-20T05:08:58.478Z,12.20
2019-04-20T05:11:23.797Z,12.10
2019-04-20T05:13:59.712Z,11.80
2019-04-20T05:16:43.469Z,11.93
2019-04-20T05:19:13.371Z,12.10
2019-04-20T05:21:49.879Z,12.30
2019-04-20T05:24:22.575Z,12.20
2019-04-20T05:27:01.571Z,12.47
2019-04-20T05:29:17.776Z,12.10
2019-04-20T05:31:47.138Z,12.40
2019-04-20T05:34:30.538Z,12.37
2019-04-20T05:36:55.665Z,12.43
2019-04-20T05:39:32.872Z,12.83
2019-04-20T05:41:54.432Z,12.50
2019-04-20T05:44:45.766Z,11.90
2019-04-20T05:47:15.846Z,11.43
2019-04-20T05:49:40.167Z,13.03
2019-04-20T05:52:25.458Z,12.90
2019-04-20T05:54:42.948Z,12.00
2019-04-20T05:57:17.481Z,11.87
2019-04-20T05:59:49.398Z,11.73
2019-04-20T06:02:10.141Z,12.40
2019-04-20T06:04:55.965Z,11.93
2019-04-20T06:07:11.079Z,12.13
2019-04-20T06:09:33.630Z,11.80
2019-04-20T06:12:17.938Z,11.23
2019-04-20T06:14:36.997Z,10.57
2019-04-20T06:17:16.001Z,11.60
2019-04-20T06:19:39.443Z,11.10
2019-04-20T06:22:27.262Z,11.23
2019-04-20T06:25:01.946Z,11.53
2019-04-20T06:27:21.179Z,11.43
2019-04-20T06:29:46.043Z,10.67
2019-04-20T06:32:30.556Z,10.33
2019-04-20T06:34:47.881Z,10.90
2019-04-20T06:37:18.839Z,10.80
2019-04-20T06:39:47.480Z,11.33
2019-04-20T06:42:33.616Z,11.13
2019-04-20T06:44:53.587Z,11.47
2019-04-20T06:47:16.460Z,12.43
2019-04-20T06:50:03.474Z,11.40
2019-04-20T06:52:25.641Z,11.40
2019-04-20T06:55:03.384Z,12.03
2019-04-20T06:57:37.277Z,11.23
2019-04-20T07:00:07.389Z,11.90
2019-04-20T07:02:37.017Z,11.10
2019-04-20T07:05:02.530Z,11.47
2019-04-20T07:07:29.805Z,12.73
2019-04-20T07:10:08.836Z,10.33
2019-04-20T07:12:31.167Z,10.93
2019-04-20T07:14:47.468Z,11.63
2019-04-20T07:17:39.407Z,10.23
2019-04-20T07:20:00.225Z,11.63
2019-04-20T07:22:43.987Z,10.73
2019-04-20T07:25:05.423Z,11.63
2019-04-20T07:27:36.861Z,11.33
2019-04-20T07:30:08.096Z,12.23
2019-04-20T07:32:42.643Z,11.77
2019-04-20T07:35:03.358Z,11.77
2019-04-20T07:38:03.294Z,13.00
2019-04-20T07:40:07.169Z,12.00
2019-04-20T07:42:52.620Z,12.83
2019-04-20T07:45:19.095Z,12.80
2019-04-20T07:50:05.135Z,12.80
2019-04-20T07:52:33.015Z,12.33
2019-04-20T07:55:28.629Z,12.60
2019-04-20T07:57:34.178Z,12.80
2019-04-20T08:00:04.879Z,13.10
2019-04-20T08:02:51.442Z,13.53
2019-04-20T08:05:10.672Z,13.43
2019-04-20T08:07:40.144Z,11.73
2019-04-20T08:10:02.871Z,12.17
2019-04-20T08:12:56.873Z,12.83
2019-04-20T08:15:29.975Z,13.13
2019-04-20T08:17:56.466Z,13.37
2019-04-20T08:20:15.959Z,13.43
2019-04-20T08:22:47.911Z,12.47
2019-04-20T08:25:08.310Z,12.90
2019-04-20T08:27:27.779Z,12.90
2019-04-20T08:30:21.599Z,13.73
2019-04-20T08:32:54.606Z,13.93
2019-04-20T08:35:31.980Z,13.63
2019-04-20T08:38:14.895Z,13.60
2019-04-20T08:40:29.986Z,13.40
2019-04-20T08:43:02.458Z,13.97
2019-04-20T08:45:32.811Z,14.23
2019-04-20T08:47:56.434Z,14.53
2019-04-20T08:50:22.374Z,15.50
2019-04-20T08:55:19.676Z,14.17
2019-04-20T08:57:33.604Z,13.43
2019-04-20T09:00:04.616Z,14.43
2019-04-20T09:02:30.631Z,14.13
2019-04-20T09:05:09.024Z,14.47
2019-04-20T09:07:35.232Z,13.83
2019-04-20T09:10:24.379Z,13.63
2019-04-20T09:12:47.805Z,13.87
2019-04-20T09:14:59.132Z,14.33
2019-04-20T09:17:38.975Z,13.93
2019-04-20T09:20:09.669Z,13.47
2019-04-20T09:22:42.173Z,13.83
2019-04-20T09:25:27.888Z,14.30
2019-04-20T09:27:39.728Z,14.23
2019-04-20T09:30:08.930Z,14.57
2019-04-20T09:32:44.087Z,13.83
2019-04-20T09:35:20.918Z,13.90
2019-04-20T09:37:53.048Z,13.83
2019-04-20T09:40:40.271Z,13.30
2019-04-20T09:42:41.794Z,13.50
2019-04-20T09:45:19.813Z,13.30
2019-04-20T09:47:44.981Z,12.83
2019-04-20T09:50:27.767Z,12.53
2019-04-20T09:52:57.071Z,13.20
2019-04-20T09:55:24.753Z,13.47
2019-04-20T09:57:58.647Z,12.50
2019-04-20T10:00:25.687Z,13.80
2019-04-20T10:02:39.946Z,16.17
2019-04-20T10:05:09.422Z,12.33
2019-04-20T10:07:38.705Z,12.00
2019-04-20T10:10:18.797Z,11.10
2019-04-20T10:12:37.641Z,11.20
2019-04-20T10:15:12.385Z,11.27
2019-04-20T10:17:36.875Z,12.60
2019-04-20T10:20:11.220Z,11.33
2019-04-20T10:22:34.803Z,12.93
2019-04-20T10:25:04.579Z,12.00
2019-04-20T10:27:32.794Z,12.17
2019-04-20T10:30:04.695Z,12.17
2019-04-20T10:32:37.695Z,12.10
2019-04-20T10:35:02.612Z,11.87
2019-04-20T10:37:35.517Z,12.40
2019-04-20T10:40:04.845Z,12.67
2019-04-20T10:42:34.587Z,12.80
2019-04-20T10:45:04.717Z,13.00
2019-04-20T10:47:32.759Z,12.03
2019-04-20T10:50:01.235Z,12.87
2019-04-20T10:52:30.164Z,15.97
2019-04-20T10:54:59.035Z,14.37
2019-04-20T10:57:27.912Z,12.77
2019-04-20T10:59:57.583Z,12.80
2019-04-20T11:02:27.741Z,12.60
2019-04-20T11:04:57.034Z,12.97
2019-04-20T11:07:26.451Z,12.63
2019-04-20T11:10:07.899Z,12.60
2019-04-20T11:12:26.460Z,12.43
2019-04-20T11:14:56.432Z,11.87
2019-04-20T11:17:24.571Z,11.33
2019-04-20T11:19:53.285Z,10.57
2019-04-20T11:22:24.096Z,10.83
2019-04-20T11:24:54.311Z,10.43
2019-04-20T11:27:22.534Z,11.00
2019-04-20T11:29:51.900Z,11.33
2019-04-20T11:32:20.274Z,11.33
2019-04-20T11:34:51.170Z,11.10
2019-04-20T11:37:19.451Z,10.77
2019-04-20T11:39:48.905Z,10.90
2019-04-20T11:42:19.511Z,9.57
2019-04-20T11:44:48.814Z,11.00
2019-04-20T11:47:17.173Z,10.93
2019-04-20T11:49:46.555Z,12.03
2019-04-20T11:52:19.383Z,11.00
2019-04-20T11:54:46.082Z,11.07
2019-04-20T11:57:15.327Z,11.80
2019-04-20T11:59:43.162Z,11.27
2019-04-20T12:02:25.380Z,11.10
2019-04-20T12:05:10.217Z,10.17
2019-04-20T12:07:22.551Z,10.70
2019-04-20T12:09:51.435Z,10.40
2019-04-20T12:12:30.067Z,11.00
2019-04-20T12:14:48.497Z,11.77
2019-04-20T12:17:17.661Z,11.77
2019-04-20T12:19:46.003Z,11.37
2019-04-20T12:22:15.999Z,11.50
2019-04-20T12:24:44.553Z,11.23
2019-04-20T12:27:14.665Z,12.07
2019-04-20T12:29:43.613Z,11.53
2019-04-20T12:32:12.696Z,11.70
2019-04-20T12:34:41.374Z,11.27
2019-04-20T12:37:11.235Z,10.77
2019-04-20T12:39:40.290Z,12.60
2019-04-20T12:42:10.061Z,11.70
2019-04-20T12:44:39.392Z,11.57
2019-04-20T12:47:07.766Z,11.10
2019-04-20T12:49:37.898Z,12.47
2019-04-20T12:52:06.735Z,12.03
2019-04-20T12:54:36.882Z,10.80
2019-04-20T12:57:05.085Z,10.97
2019-04-20T12:59:34.071Z,10.67
2019-04-20T13:02:03.541Z,10.43
2019-04-20T13:04:33.259Z,11.93
2019-04-20T13:07:01.815Z,11.30
2019-04-20T13:09:34.569Z,10.87
2019-04-20T13:12:09.959Z,11.10
2019-04-20T13:15:00.278Z,9.40
2019-04-20T13:17:28.657Z,10.87
2019-04-20T13:19:57.593Z,11.60
2019-04-20T13:22:26.463Z,11.37
2019-04-20T13:24:55.330Z,10.33
2019-04-20T13:27:25.028Z,8.73
2019-04-20T13:29:55.811Z,7.47
2019-04-20T13:32:23.901Z,6.97
2019-04-20T13:34:53.923Z,7.43
2019-04-20T13:37:22.249Z,9.37
2019-04-20T13:39:51.105Z,7.93
2019-04-20T13:42:28.518Z,10.27
2019-04-20T13:44:57.170Z,9.87
2019-04-20T13:47:28.183Z,8.53
2019-04-20T13:49:56.596Z,8.57
2019-04-20T13:52:27.040Z,7.67
2019-04-20T13:54:56.265Z,8.00
2019-04-20T13:57:30.001Z,7.80
2019-04-20T14:00:00.069Z,8.80
2019-04-20T14:02:34.754Z,8.40
2019-04-20T14:05:04.657Z,9.23
2019-04-20T14:07:35.553Z,9.63
2019-04-20T14:10:05.732Z,7.70
2019-04-20T14:12:38.641Z,8.13
2019-04-20T14:15:05.067Z,8.10
2019-04-20T14:17:34.972Z,8.53
2019-04-20T14:20:09.799Z,7.43
2019-04-20T14:22:33.346Z,6.73
2019-04-20T14:25:01.279Z,8.63
2019-04-20T14:27:30.842Z,7.57
2019-04-20T14:30:01.305Z,7.47
2019-04-20T14:32:29.897Z,11.00
2019-04-20T14:34:58.863Z,8.67
2019-04-20T14:37:28.708Z,7.70
2019-04-20T14:39:56.565Z,7.37
2019-04-20T14:42:34.786Z,8.07
2019-04-20T14:44:55.509Z,7.47
2019-04-20T14:47:23.633Z,8.03
2019-04-20T14:49:52.877Z,7.70
2019-04-20T14:52:21.805Z,7.90
2019-04-20T14:54:50.661Z,8.03
2019-04-20T14:57:19.802Z,7.83
2019-04-20T14:59:55.802Z,8.20
2019-04-20T15:02:26.149Z,7.90
2019-04-20T15:04:55.010Z,7.70
2019-04-20T15:07:24.697Z,7.60
2019-04-20T15:09:53.012Z,8.17
2019-04-20T15:12:21.801Z,7.03
2019-04-20T15:14:50.755Z,7.40
2019-04-20T15:17:23.841Z,7.90
2019-04-20T15:20:57.990Z,8.00
2019-04-20T15:23:27.861Z,7.47
2019-04-20T15:25:56.062Z,7.50
2019-04-20T15:28:26.145Z,7.73
2019-04-20T15:30:56.296Z,7.67
2019-04-20T15:33:25.224Z,7.60
2019-04-20T15:35:54.013Z,7.17
2019-04-20T15:38:24.965Z,7.83
2019-04-20T15:40:53.311Z,8.40
2019-04-20T15:43:24.939Z,9.90
2019-04-20T15:45:51.626Z,9.03
2019-04-20T15:48:19.879Z,8.27
2019-04-20T15:50:49.793Z,8.17
2019-04-20T15:53:17.581Z,8.67
2019-04-20T15:55:47.414Z,9.63
2019-04-20T15:58:16.313Z,9.30
2019-04-20T16:00:44.686Z,8.27
2019-04-20T16:03:17.247Z,8.17
2019-04-20T16:05:49.422Z,9.03
2019-04-20T16:08:36.688Z,8.30
2019-04-20T16:11:04.928Z,10.37
2019-04-20T16:13:39.701Z,10.07
2019-04-20T16:16:03.979Z,15.83
2019-04-20T16:18:32.903Z,8.87
2019-04-20T16:21:09.224Z,9.03
2019-04-20T16:23:32.443Z,13.30
2019-04-20T16:26:07.799Z,9.40
2019-04-20T16:28:37.441Z,9.87
2019-04-20T16:31:09.652Z,11.13
2019-04-20T16:33:34.598Z,8.77
2019-04-20T16:36:04.701Z,10.43
2019-04-20T16:38:33.082Z,26.70
2019-04-20T16:41:02.185Z,63.50
2019-04-20T16:43:35.822Z,38.43
2019-04-20T16:46:01.309Z,34.60
2019-04-20T16:48:30.415Z,29.07
2019-04-20T16:51:00.637Z,21.97
2019-04-20T16:53:29.181Z,9.80
2019-04-20T16:55:58.955Z,10.03
2019-04-20T16:58:28.015Z,10.93
2019-04-20T17:00:56.394Z,9.90
2019-04-20T17:03:37.301Z,8.93
2019-04-20T17:05:54.321Z,8.93
2019-04-20T17:08:23.177Z,8.47
2019-04-20T17:10:52.075Z,7.83
2019-04-20T17:13:31.912Z,8.27
2019-04-20T17:15:49.965Z,7.90
2019-04-20T17:18:19.667Z,6.93
2019-04-20T17:20:48.624Z,7.20
2019-04-20T17:23:17.749Z,8.17
2019-04-20T17:25:46.406Z,7.90
2019-04-20T17:28:20.691Z,7.77
2019-04-20T17:30:59.045Z,7.57
2019-04-20T17:33:47.444Z,8.17
2019-04-20T17:36:12.424Z,7.47
2019-04-20T17:38:41.167Z,6.73
2019-04-20T17:41:22.446Z,6.70
2019-04-20T17:43:56.719Z,9.17
2019-04-20T17:46:12.084Z,10.93
2019-04-20T17:48:43.014Z,9.77
2019-04-20T17:51:23.527Z,9.77
2019-04-20T17:54:39.663Z,13.37
2019-04-20T17:57:09.299Z,8.67
2019-04-20T17:59:38.092Z,12.47
2019-04-20T18:02:24.595Z,33.03
2019-04-20T18:05:12.637Z,17.97
2019-04-20T18:07:35.492Z,9.97
2019-04-20T18:10:08.118Z,41.43
2019-04-20T18:12:25.819Z,23.70
2019-04-20T18:14:58.076Z,9.50
2019-04-20T18:17:29.295Z,14.27
2019-04-20T18:19:52.191Z,20.53
2019-04-20T18:22:21.412Z,6.43
2019-04-20T18:25:16.357Z,6.33
2019-04-20T18:27:38.799Z,11.40
2019-04-20T18:30:06.796Z,11.47
2019-04-20T18:32:27.320Z,7.53
2019-04-20T18:35:01.717Z,7.20
2019-04-20T18:37:30.811Z,7.23
2019-04-20T18:40:06.201Z,5.80
2019-04-20T18:42:32.862Z,5.50
2019-04-20T18:45:14.251Z,5.20
2019-04-20T18:47:45.681Z,5.27
2019-04-20T18:50:07.686Z,5.50
2019-04-20T18:52:24.327Z,5.47
2019-04-20T18:54:55.359Z,5.30
2019-04-20T18:57:26.083Z,5.43
2019-04-20T18:59:54.506Z,5.30
2019-04-20T19:02:26.918Z,5.47
2019-04-20T19:04:50.099Z,6.13
2019-04-20T19:07:19.759Z,5.03
2019-04-20T19:09:48.482Z,5.73
2019-04-20T19:12:16.628Z,5.70
2019-04-20T19:15:26.845Z,5.03
2019-04-20T19:17:49.794Z,5.33
2019-04-20T19:20:11.958Z,5.23
2019-04-20T19:22:40.187Z,5.80
2019-04-20T19:25:09.988Z,5.80
2019-04-20T19:27:46.313Z,5.23
2019-04-20T19:30:21.212Z,5.40
2019-04-20T19:32:54.277Z,5.67
2019-04-20T19:35:23.581Z,5.43
2019-04-20T19:37:50.406Z,5.93
2019-04-20T19:40:19.170Z,6.63
2019-04-20T19:42:47.915Z,6.07
2019-04-20T19:45:39.841Z,6.30
2019-04-20T19:47:54.481Z,5.93
2019-04-20T19:50:35.638Z,5.00
2019-04-20T19:53:05.681Z,5.80
2019-04-20T19:55:26.014Z,5.83
2019-04-20T19:57:56.511Z,5.93
2019-04-20T20:00:08.197Z,5.90
2019-04-20T20:02:36.473Z,6.30
2019-04-20T20:05:09.272Z,6.70
2019-04-20T20:07:38.736Z,6.13
2019-04-20T20:10:07.764Z,5.90
2019-04-20T20:12:33.670Z,6.50
2019-04-20T20:15:07.425Z,6.37
2019-04-20T20:17:48.399Z,7.30
2019-04-20T20:20:29.033Z,6.50
2019-04-20T20:22:37.739Z,6.87
2019-04-20T20:25:01.007Z,6.77
2019-04-20T20:27:39.408Z,7.30
2019-04-20T20:30:06.815Z,6.87
2019-04-20T20:32:44.285Z,6.77
2019-04-20T20:35:05.559Z,10.93
2019-04-20T20:37:34.782Z,7.70
2019-04-20T20:40:07.627Z,7.10
2019-04-20T20:42:35.839Z,8.00
2019-04-20T20:45:11.971Z,7.33
2019-04-20T20:47:50.617Z,8.23
2019-04-20T20:50:33.712Z,7.93
2019-04-20T20:52:38.182Z,7.80
2019-04-20T20:55:06.106Z,7.73
2019-04-20T20:57:26.283Z,7.40
2019-04-20T20:59:59.759Z,7.50
2019-04-20T21:02:33.669Z,7.63
2019-04-20T21:04:51.446Z,7.90
2019-04-20T21:07:20.602Z,8.13
2019-04-20T21:09:50.440Z,7.47
2019-04-20T21:12:22.314Z,8.63
2019-04-20T21:14:50.924Z,8.17
2019-04-20T21:17:23.381Z,8.00
2019-04-20T21:20:05.287Z,7.73
2019-04-20T21:22:27.297Z,8.27
2019-04-20T21:24:51.159Z,7.93
2019-04-20T21:27:22.009Z,8.53
2019-04-20T21:29:52.488Z,8.17
2019-04-20T21:32:19.566Z,8.47
2019-04-20T21:34:52.122Z,8.30
2019-04-20T21:37:18.925Z,8.63
2019-04-20T21:39:51.512Z,8.40
2019-04-20T21:42:19.070Z,8.47
2019-04-20T21:44:45.308Z,8.80
2019-04-20T21:47:15.701Z,8.37
2019-04-20T21:49:51.949Z,8.33
2019-04-20T21:52:18.373Z,9.43
2019-04-20T21:54:38.445Z,8.97
2019-04-20T21:57:11.138Z,8.70
2019-04-20T21:59:43.234Z,9.43
2019-04-20T22:02:16.725Z,9.30
2019-04-20T22:04:35.529Z,9.60
2019-04-20T22:07:04.678Z,9.53
2019-04-20T22:09:40.232Z,8.90
2019-04-20T22:12:02.311Z,9.63
2019-04-20T22:14:33.630Z,9.47
2019-04-20T22:17:00.836Z,9.23
2019-04-20T22:19:41.369Z,9.67
2019-04-20T22:22:09.001Z,9.80
2019-04-20T22:24:42.490Z,10.50
2019-04-20T22:27:07.551Z,9.43
2019-04-20T22:29:28.039Z,10.03
2019-04-20T22:32:03.097Z,10.27
2019-04-20T22:34:28.096Z,10.53
2019-04-20T22:36:55.997Z,9.57
2019-04-20T22:39:31.969Z,11.10
2019-04-20T22:42:03.410Z,10.67
2019-04-20T22:44:28.333Z,11.17
2019-04-20T22:46:56.360Z,11.37
2019-04-20T22:49:40.071Z,12.03
2019-04-20T22:52:02.857Z,11.03
2019-04-20T22:54:42.176Z,12.20
2019-04-20T22:57:03.399Z,12.20
2019-04-20T22:59:23.323Z,12.17
2019-04-20T23:01:55.213Z,12.57
2019-04-20T23:04:19.129Z,11.67
2019-04-20T23:06:50.077Z,10.77
2019-04-20T23:09:16.846Z,12.60
2019-04-20T23:11:45.269Z,12.13
2019-04-20T23:14:14.449Z,11.90
2019-04-20T23:16:47.183Z,12.37
2019-04-20T23:19:12.012Z,12.43
2019-04-20T23:21:48.545Z,12.17
2019-04-20T23:24:12.969Z,13.03
2019-04-20T23:26:42.150Z,12.63
2019-04-20T23:29:09.185Z,12.23
2019-04-20T23:31:39.026Z,13.17
2019-04-20T23:34:12.864Z,12.37
2019-04-20T23:36:40.337Z,13.33
2019-04-20T23:39:06.619Z,12.73
2019-04-20T23:41:35.716Z,14.03
2019-04-20T23:44:12.628Z,12.90
2019-04-20T23:46:45.267Z,13.93
2019-04-20T23:49:27.219Z,14.03
2019-04-20T23:52:09.507Z,13.67
2019-04-20T23:54:25.125Z,14.77
2019-04-20T23:56:49.983Z,14.83
2019-04-20T23:59:19.204Z,14.13
